createdAt,value
2023-03-30T00:00:58.055Z,-0.05
2023-03-30T00:03:27.768Z,-0.05
2023-03-30T00:05:58.975Z,-0.07
2023-03-30T00:08:28.564Z,-0.03
2023-03-30T00:11:06.219Z,0.00
2023-03-30T00:13:35.033Z,-0.02
2023-03-30T00:16:02.329Z,0.01
2023-03-30T00:18:34.079Z,0.07
2023-03-30T00:21:03.139Z,0.15
2023-03-30T00:23:30.972Z,0.26
2023-03-30T00:25:58.200Z,0.31
2023-03-30T00:28:26.381Z,0.35
2023-03-30T00:30:53.907Z,0.38
2023-03-30T00:33:30.179Z,0.42
2023-03-30T00:36:04.851Z,0.45
2023-03-30T00:38:32.074Z,0.43
2023-03-30T00:41:02.181Z,0.41
2023-03-30T00:43:29.812Z,0.38
2023-03-30T00:45:57.783Z,0.35
2023-03-30T00:48:27.984Z,0.37
2023-03-30T00:51:03.245Z,0.43
2023-03-30T00:53:53.233Z,0.55
2023-03-30T00:56:26.756Z,0.67
2023-03-30T00:58:55.087Z,0.73
2023-03-30T01:01:31.248Z,0.75
2023-03-30T01:04:05.676Z,0.79
2023-03-30T01:06:35.484Z,0.78
2023-03-30T01:09:02.775Z,0.75
2023-03-30T01:11:29.631Z,0.74
2023-03-30T01:14:01.362Z,0.74
2023-03-30T01:16:46.522Z,0.72
2023-03-30T01:19:25.861Z,0.72
2023-03-30T01:22:01.576Z,0.70
2023-03-30T01:24:35.030Z,0.71
2023-03-30T01:27:46.335Z,0.64
2023-03-30T01:30:19.210Z,0.61
2023-03-30T01:33:04.717Z,0.58
2023-03-30T01:35:46.211Z,0.60
2023-03-30T01:38:25.142Z,0.66
2023-03-30T01:41:14.134Z,0.70
2023-03-30T01:43:53.940Z,0.76
2023-03-30T01:46:31.004Z,0.71
2023-03-30T01:49:15.484Z,0.67
2023-03-30T01:51:54.321Z,0.59
2023-03-30T01:54:24.152Z,0.54
2023-03-30T01:56:57.964Z,0.51
2023-03-30T01:59:31.551Z,0.47
2023-03-30T02:02:04.241Z,0.46
2023-03-30T02:04:38.874Z,0.40
2023-03-30T02:07:20.936Z,0.33
2023-03-30T02:09:51.016Z,0.27
2023-03-30T02:12:19.664Z,0.22
2023-03-30T02:14:49.654Z,0.15
2023-03-30T02:17:24.612Z,0.05
2023-03-30T02:19:52.564Z,-0.03
2023-03-30T02:22:20.668Z,-0.13
2023-03-30T02:24:52.048Z,-0.15
2023-03-30T02:27:19.831Z,-0.16
2023-03-30T02:29:47.089Z,-0.13
2023-03-30T02:32:28.923Z,-0.17
2023-03-30T02:35:09.074Z,-0.22
2023-03-30T02:38:20.543Z,-0.33
2023-03-30T02:40:53.117Z,-0.42
2023-03-30T02:43:52.684Z,-0.49
2023-03-30T02:46:28.647Z,-0.52
2023-03-30T02:49:28.775Z,-0.58
2023-03-30T02:52:34.026Z,-0.64
2023-03-30T02:55:13.680Z,-0.59
2023-03-30T02:57:46.871Z,-0.58
2023-03-30T03:00:34.680Z,-0.63
2023-03-30T03:03:31.774Z,-0.61
2023-03-30T03:06:02.920Z,-0.57
2023-03-30T03:08:35.361Z,-0.53
2023-03-30T03:11:02.797Z,-0.54
2023-03-30T03:13:29.926Z,-0.53
2023-03-30T03:15:58.715Z,-0.56
2023-03-30T03:18:25.664Z,-0.58
2023-03-30T03:20:52.826Z,-0.61
2023-03-30T03:23:19.661Z,-0.57
2023-03-30T03:25:48.412Z,-0.50
2023-03-30T03:28:15.588Z,-0.45
2023-03-30T03:30:42.895Z,-0.36
2023-03-30T03:33:09.796Z,-0.36
2023-03-30T03:35:39.525Z,-0.37
2023-03-30T03:38:07.947Z,-0.40
2023-03-30T03:40:35.067Z,-0.42
2023-03-30T03:43:02.134Z,-0.39
2023-03-30T03:45:29.369Z,-0.48
2023-03-30T03:47:56.514Z,-0.58
2023-03-30T03:50:24.199Z,-0.63
2023-03-30T03:52:51.384Z,-0.64
2023-03-30T03:55:18.546Z,-0.64
2023-03-30T03:57:45.368Z,-0.66
2023-03-30T04:00:18.709Z,-0.67
2023-03-30T04:02:46.926Z,-0.71
2023-03-30T04:05:14.236Z,-0.71
2023-03-30T04:07:41.697Z,-0.64
2023-03-30T04:10:09.190Z,-0.50
2023-03-30T04:12:36.501Z,-0.37
2023-03-30T04:15:04.050Z,-0.24
2023-03-30T04:17:33.738Z,-0.07
2023-03-30T04:20:05.023Z,0.14
2023-03-30T04:22:41.974Z,0.27
2023-03-30T04:25:11.748Z,0.39
2023-03-30T04:27:38.856Z,0.48
2023-03-30T04:30:06.571Z,0.60
2023-03-30T04:32:34.875Z,0.74
2023-03-30T04:35:02.245Z,0.90
2023-03-30T04:37:32.150Z,1.07
2023-03-30T04:40:00.539Z,1.29
2023-03-30T04:42:30.470Z,1.49
2023-03-30T04:44:58.017Z,1.72
2023-03-30T04:47:26.145Z,2.00
2023-03-30T04:49:53.385Z,2.25
2023-03-30T04:52:20.894Z,2.37
2023-03-30T04:54:48.147Z,2.36
2023-03-30T04:57:16.284Z,2.28
2023-03-30T04:59:45.200Z,2.24
2023-03-30T05:02:13.826Z,2.21
2023-03-30T05:04:41.517Z,2.22
2023-03-30T05:07:09.073Z,2.23
2023-03-30T05:09:36.562Z,2.27
2023-03-30T05:12:04.791Z,2.28
2023-03-30T05:14:32.052Z,2.29
2023-03-30T05:16:59.043Z,2.32
2023-03-30T05:19:26.555Z,2.32
2023-03-30T05:21:54.099Z,2.34
2023-03-30T05:24:21.382Z,2.35
2023-03-30T05:26:48.318Z,2.37
2023-03-30T05:29:15.944Z,2.38
2023-03-30T05:31:42.894Z,2.40
2023-03-30T05:34:10.098Z,2.43
2023-03-30T05:36:37.025Z,2.48
2023-03-30T05:39:05.169Z,2.54
2023-03-30T05:41:32.104Z,2.61
2023-03-30T05:43:59.345Z,2.69
2023-03-30T05:46:26.365Z,2.77
2023-03-30T05:48:53.539Z,2.83
2023-03-30T05:51:20.657Z,2.92
2023-03-30T05:53:47.975Z,3.00
2023-03-30T05:56:14.816Z,3.05
2023-03-30T05:58:42.343Z,3.15
2023-03-30T06:01:09.591Z,3.20
2023-03-30T06:03:37.818Z,3.25
2023-03-30T06:06:05.849Z,3.29
2023-03-30T06:08:33.176Z,3.29
2023-03-30T06:11:01.015Z,3.32
2023-03-30T06:13:28.288Z,3.38
2023-03-30T06:15:55.237Z,3.40
2023-03-30T06:18:23.734Z,3.44
2023-03-30T06:20:52.305Z,3.46
2023-03-30T06:23:19.498Z,3.47
2023-03-30T06:25:53.157Z,3.52
2023-03-30T06:28:21.574Z,3.57
2023-03-30T06:30:49.411Z,3.59
2023-03-30T06:33:17.739Z,3.66
2023-03-30T06:35:49.217Z,3.72
2023-03-30T06:38:17.464Z,3.82
2023-03-30T06:40:44.590Z,3.93
2023-03-30T06:43:23.320Z,4.05
2023-03-30T06:45:55.229Z,4.14
2023-03-30T06:48:26.716Z,4.27
2023-03-30T06:50:55.286Z,4.40
2023-03-30T06:53:23.624Z,4.45
2023-03-30T06:55:53.066Z,4.55
2023-03-30T06:58:20.066Z,4.61
2023-03-30T07:00:47.734Z,4.66
2023-03-30T07:03:19.918Z,4.78
2023-03-30T07:05:52.429Z,4.89
2023-03-30T07:08:20.266Z,4.99
2023-03-30T07:10:48.269Z,5.07
2023-03-30T07:13:19.258Z,5.18
2023-03-30T07:15:47.014Z,5.29
2023-03-30T07:18:14.963Z,5.50
2023-03-30T07:20:42.003Z,5.72
2023-03-30T07:23:09.231Z,5.86
2023-03-30T07:25:36.427Z,6.10
2023-03-30T07:28:06.344Z,6.30
2023-03-30T07:30:34.956Z,6.50
2023-03-30T07:33:02.956Z,6.77
2023-03-30T07:35:30.173Z,7.06
2023-03-30T07:38:03.434Z,7.11
2023-03-30T07:40:31.405Z,7.20
2023-03-30T07:42:59.101Z,7.27
2023-03-30T07:45:26.324Z,7.19
2023-03-30T07:47:53.567Z,7.16
2023-03-30T07:50:21.645Z,7.54
2023-03-30T07:52:51.412Z,7.86
2023-03-30T07:55:19.079Z,8.11
2023-03-30T07:57:46.440Z,8.28
2023-03-30T08:00:14.755Z,8.62
2023-03-30T08:02:42.590Z,9.05
2023-03-30T08:05:10.305Z,9.16
2023-03-30T08:07:37.761Z,9.35
2023-03-30T08:10:05.343Z,9.27
2023-03-30T08:12:32.514Z,8.88
2023-03-30T08:14:59.510Z,8.64
2023-03-30T08:17:26.990Z,8.51
2023-03-30T08:19:53.948Z,8.30
2023-03-30T08:22:21.155Z,8.11
2023-03-30T08:24:48.181Z,8.13
2023-03-30T08:27:15.390Z,8.02
2023-03-30T08:29:42.218Z,8.04
2023-03-30T08:32:09.442Z,8.06
2023-03-30T08:34:37.392Z,8.16
2023-03-30T08:37:05.739Z,8.22
2023-03-30T08:39:33.300Z,8.35
2023-03-30T08:42:23.156Z,8.99
2023-03-30T08:44:55.762Z,9.67
2023-03-30T08:47:33.274Z,10.03
2023-03-30T08:50:04.999Z,10.32
2023-03-30T08:52:34.017Z,10.11
2023-03-30T08:55:01.976Z,9.97
2023-03-30T08:57:46.989Z,9.83
2023-03-30T09:00:29.386Z,9.74
2023-03-30T09:03:10.862Z,9.69
2023-03-30T09:05:46.162Z,10.23
2023-03-30T09:08:20.091Z,10.41
2023-03-30T09:10:59.172Z,10.22
2023-03-30T09:13:33.859Z,9.86
2023-03-30T09:16:15.048Z,9.78
2023-03-30T09:18:44.908Z,9.95
2023-03-30T09:21:13.824Z,10.06
2023-03-30T09:23:41.267Z,9.88
2023-03-30T09:26:28.519Z,9.75
2023-03-30T09:29:15.545Z,9.85
2023-03-30T09:31:51.776Z,10.05
2023-03-30T09:34:30.520Z,10.05
2023-03-30T09:37:04.038Z,9.95
2023-03-30T09:39:34.243Z,9.74
2023-03-30T09:42:01.449Z,9.72
2023-03-30T09:44:58.710Z,9.58
2023-03-30T09:47:28.653Z,9.65
2023-03-30T09:50:01.009Z,9.68
2023-03-30T09:52:32.178Z,9.92
2023-03-30T09:55:24.099Z,10.04
2023-03-30T09:57:52.379Z,10.22
2023-03-30T10:00:27.873Z,10.17
2023-03-30T10:03:03.806Z,10.05
2023-03-30T10:05:32.898Z,10.13
2023-03-30T10:08:01.324Z,10.33
2023-03-30T10:10:41.223Z,10.64
2023-03-30T10:13:14.585Z,10.87
2023-03-30T10:15:44.944Z,10.92
2023-03-30T10:18:18.278Z,11.00
2023-03-30T10:21:02.735Z,11.30
2023-03-30T10:23:33.507Z,11.23
2023-03-30T10:26:03.821Z,11.04
2023-03-30T10:28:33.684Z,10.88
2023-03-30T10:31:13.712Z,10.89
2023-03-30T10:33:44.030Z,10.69
2023-03-30T10:36:13.590Z,10.92
2023-03-30T10:38:42.491Z,11.59
2023-03-30T10:41:23.757Z,11.94
2023-03-30T10:43:51.850Z,12.38
2023-03-30T10:46:22.862Z,12.30
2023-03-30T10:49:02.334Z,12.41
2023-03-30T10:51:53.304Z,12.66
2023-03-30T10:54:35.713Z,12.41
2023-03-30T10:57:26.393Z,12.41
2023-03-30T11:00:29.914Z,12.26
2023-03-30T11:02:59.472Z,12.14
2023-03-30T11:05:32.688Z,12.09
2023-03-30T11:08:07.028Z,12.17
2023-03-30T11:10:59.261Z,12.55
2023-03-30T11:13:43.019Z,12.64
2023-03-30T11:16:16.230Z,12.69
2023-03-30T11:18:57.215Z,12.74
2023-03-30T11:21:37.100Z,12.89
2023-03-30T11:24:30.277Z,12.76
2023-03-30T11:27:18.695Z,12.73
2023-03-30T11:29:50.079Z,12.53
2023-03-30T11:32:24.865Z,12.84
2023-03-30T11:35:31.861Z,12.54
2023-03-30T11:38:17.596Z,12.42
2023-03-30T11:40:47.066Z,12.57
2023-03-30T11:43:20.223Z,12.50
2023-03-30T11:46:04.427Z,12.17
2023-03-30T11:48:50.646Z,11.72
2023-03-30T11:52:01.537Z,11.77
2023-03-30T11:55:03.096Z,11.93
2023-03-30T11:57:57.174Z,11.68
2023-03-30T12:00:42.808Z,11.40
2023-03-30T12:03:17.580Z,11.13
2023-03-30T12:05:48.826Z,10.91
2023-03-30T12:08:44.180Z,10.65
2023-03-30T12:11:20.624Z,10.42
2023-03-30T12:13:52.098Z,10.22
2023-03-30T12:16:49.439Z,10.04
2023-03-30T12:19:29.353Z,9.86
2023-03-30T12:22:16.382Z,9.87
2023-03-30T12:24:53.942Z,9.75
2023-03-30T12:27:22.790Z,9.66
2023-03-30T12:32:24.242Z,9.82
2023-03-30T12:34:53.271Z,9.87
2023-03-30T12:37:35.372Z,9.99
2023-03-30T12:40:22.327Z,9.90
2023-03-30T12:43:10.973Z,9.84
2023-03-30T12:46:02.203Z,9.82
2023-03-30T12:49:01.616Z,9.84
2023-03-30T12:51:54.552Z,9.88
2023-03-30T12:54:41.890Z,9.90
2023-03-30T12:57:31.632Z,9.95
2023-03-30T13:00:23.567Z,10.02
2023-03-30T13:03:26.154Z,10.22
2023-03-30T13:05:55.445Z,10.45
2023-03-30T13:08:28.889Z,10.42
2023-03-30T13:11:21.123Z,10.27
2023-03-30T13:13:53.820Z,10.11
2023-03-30T13:16:48.984Z,10.02
2023-03-30T13:19:37.229Z,9.96
2023-03-30T13:22:13.484Z,9.87
2023-03-30T13:24:52.524Z,9.85
2023-03-30T13:27:19.611Z,9.83
2023-03-30T13:30:09.877Z,9.72
2023-03-30T13:32:39.838Z,9.56
2023-03-30T13:35:15.814Z,9.43
2023-03-30T13:38:04.376Z,9.30
2023-03-30T13:41:05.397Z,9.19
2023-03-30T13:43:58.472Z,9.13
2023-03-30T13:46:54.301Z,9.10
2023-03-30T13:49:30.692Z,9.09
2023-03-30T13:52:04.261Z,9.06
2023-03-30T13:54:34.523Z,9.06
2023-03-30T13:57:09.887Z,9.03
2023-03-30T13:59:42.475Z,8.98
2023-03-30T14:02:14.856Z,8.91
2023-03-30T14:04:42.061Z,8.82
2023-03-30T14:07:16.546Z,8.76
2023-03-30T14:09:44.683Z,8.73
2023-03-30T14:12:13.834Z,8.73
2023-03-30T14:14:47.196Z,8.69
2023-03-30T14:17:19.269Z,8.68
2023-03-30T14:19:54.210Z,8.62
2023-03-30T14:22:27.349Z,8.61
2023-03-30T14:25:02.740Z,8.64
2023-03-30T14:27:38.575Z,8.58
2023-03-30T14:30:22.305Z,8.46
2023-03-30T14:33:09.003Z,8.37
2023-03-30T14:35:47.618Z,8.28
2023-03-30T14:38:20.427Z,8.19
2023-03-30T14:40:49.071Z,8.06
2023-03-30T14:43:29.463Z,7.97
2023-03-30T14:45:59.752Z,7.93
2023-03-30T14:48:35.308Z,7.85
2023-03-30T14:51:03.882Z,7.77
2023-03-30T14:53:31.497Z,7.76
2023-03-30T14:56:01.115Z,7.70
2023-03-30T14:58:29.970Z,7.61
2023-03-30T15:00:58.926Z,7.56
2023-03-30T15:03:34.562Z,7.54
2023-03-30T15:06:04.946Z,7.54
2023-03-30T15:08:33.976Z,7.48
2023-03-30T15:11:04.473Z,7.43
2023-03-30T15:13:36.819Z,7.40
2023-03-30T15:16:06.216Z,7.34
2023-03-30T15:18:36.528Z,7.34
2023-03-30T15:21:04.803Z,7.30
2023-03-30T15:23:41.177Z,7.26
2023-03-30T15:26:11.464Z,7.25
2023-03-30T15:28:52.194Z,7.23
2023-03-30T15:31:20.693Z,7.24
2023-03-30T15:33:54.086Z,7.20
2023-03-30T15:36:33.320Z,7.19
2023-03-30T15:39:00.482Z,7.20
2023-03-30T15:41:49.692Z,7.19
2023-03-30T15:44:21.407Z,7.17
2023-03-30T15:46:50.425Z,7.18
2023-03-30T15:49:24.924Z,7.17
2023-03-30T15:51:56.596Z,7.23
2023-03-30T15:54:34.691Z,7.18
2023-03-30T15:57:17.653Z,7.19
2023-03-30T15:59:46.951Z,7.17
2023-03-30T16:02:17.260Z,7.16
2023-03-30T16:04:44.320Z,7.16
2023-03-30T16:07:17.687Z,7.15
2023-03-30T16:09:44.980Z,7.17
2023-03-30T16:12:18.358Z,7.14
2023-03-30T16:14:47.231Z,7.13
2023-03-30T16:17:15.501Z,7.08
2023-03-30T16:19:43.332Z,7.05
2023-03-30T16:22:12.198Z,7.09
2023-03-30T16:24:39.106Z,7.11
2023-03-30T16:27:06.604Z,7.07
2023-03-30T16:29:33.729Z,7.06
2023-03-30T16:32:01.603Z,7.04
2023-03-30T16:34:28.836Z,7.03
2023-03-30T16:36:56.345Z,7.01
2023-03-30T16:39:28.836Z,7.02
2023-03-30T16:41:56.513Z,7.02
2023-03-30T16:44:24.996Z,7.01
2023-03-30T16:46:52.700Z,6.97
2023-03-30T16:49:23.121Z,6.99
2023-03-30T16:51:52.598Z,6.96
2023-03-30T16:54:30.450Z,6.95
2023-03-30T16:57:00.603Z,6.97
2023-03-30T16:59:31.715Z,6.95
2023-03-30T17:02:00.159Z,6.95
2023-03-30T17:04:27.267Z,6.95
2023-03-30T17:06:55.188Z,6.89
2023-03-30T17:09:22.362Z,6.89
2023-03-30T17:11:50.041Z,6.85
2023-03-30T17:14:17.970Z,6.87
2023-03-30T17:16:45.499Z,6.85
2023-03-30T17:19:14.148Z,6.85
2023-03-30T17:21:43.858Z,6.87
2023-03-30T17:24:12.795Z,6.90
2023-03-30T17:26:41.110Z,6.89
2023-03-30T17:29:09.707Z,6.89
2023-03-30T17:31:38.423Z,6.87
2023-03-30T17:34:06.787Z,6.87
2023-03-30T17:36:34.011Z,6.88
2023-03-30T17:39:04.827Z,6.89
2023-03-30T17:41:33.771Z,6.91
2023-03-30T17:44:00.798Z,6.92
2023-03-30T17:46:28.437Z,6.96
2023-03-30T17:48:55.407Z,6.91
2023-03-30T17:51:22.614Z,6.92
2023-03-30T17:53:49.516Z,6.91
2023-03-30T17:56:17.223Z,6.89
2023-03-30T17:58:44.121Z,6.93
2023-03-30T18:01:13.298Z,6.91
2023-03-30T18:03:40.855Z,6.92
2023-03-30T18:06:13.725Z,6.91
2023-03-30T18:08:41.197Z,6.91
2023-03-30T18:11:10.705Z,6.93
2023-03-30T18:13:38.187Z,6.91
2023-03-30T18:16:06.868Z,6.93
2023-03-30T18:18:33.847Z,6.97
2023-03-30T18:21:04.280Z,6.95
2023-03-30T18:23:34.046Z,6.98
2023-03-30T18:26:09.425Z,6.97
2023-03-30T18:28:40.559Z,6.97
2023-03-30T18:31:08.896Z,7.02
2023-03-30T18:33:36.220Z,7.06
2023-03-30T18:36:07.583Z,7.06
2023-03-30T18:38:34.914Z,7.11
2023-03-30T18:41:02.091Z,7.11
2023-03-30T18:43:29.063Z,7.17
2023-03-30T18:46:01.047Z,7.18
2023-03-30T18:48:29.008Z,7.20
2023-03-30T18:50:57.082Z,7.24
2023-03-30T18:53:28.514Z,7.25
2023-03-30T18:55:58.698Z,7.26
2023-03-30T18:58:27.956Z,7.29
2023-03-30T19:00:56.186Z,7.34
2023-03-30T19:03:24.223Z,7.39
2023-03-30T19:05:51.662Z,7.42
2023-03-30T19:08:21.618Z,7.42
2023-03-30T19:10:51.024Z,7.43
2023-03-30T19:13:20.458Z,7.45
2023-03-30T19:15:49.682Z,7.47
2023-03-30T19:18:25.978Z,7.48
2023-03-30T19:20:55.591Z,7.48
2023-03-30T19:23:22.352Z,7.49
2023-03-30T19:25:49.848Z,7.56
2023-03-30T19:28:17.306Z,7.56
2023-03-30T19:30:46.314Z,7.56
2023-03-30T19:33:16.631Z,7.56
2023-03-30T19:35:45.887Z,7.59
2023-03-30T19:38:14.869Z,7.58
2023-03-30T19:40:42.460Z,7.58
2023-03-30T19:43:09.881Z,7.58
2023-03-30T19:45:37.475Z,7.59
2023-03-30T19:48:04.656Z,7.61
2023-03-30T19:50:31.852Z,7.61
2023-03-30T19:52:59.577Z,7.64
2023-03-30T19:55:27.112Z,7.62
2023-03-30T19:57:54.780Z,7.66
2023-03-30T20:00:22.791Z,7.63
2023-03-30T20:02:52.169Z,7.62
2023-03-30T20:05:21.008Z,7.62
2023-03-30T20:07:48.756Z,7.61
2023-03-30T20:10:20.336Z,7.62
2023-03-30T20:12:49.637Z,7.66
2023-03-30T20:15:18.051Z,7.66
2023-03-30T20:17:45.017Z,7.70
2023-03-30T20:20:17.060Z,7.74
2023-03-30T20:22:44.781Z,7.74
2023-03-30T20:25:14.110Z,7.74
2023-03-30T20:27:41.612Z,7.75
2023-03-30T20:30:10.123Z,7.76
2023-03-30T20:32:37.461Z,7.76
2023-03-30T20:35:06.212Z,7.71
2023-03-30T20:37:33.394Z,7.68
2023-03-30T20:40:04.247Z,7.67
2023-03-30T20:42:34.117Z,7.63
2023-03-30T20:45:01.747Z,7.57
2023-03-30T20:47:31.069Z,7.54
2023-03-30T20:49:59.388Z,7.50
2023-03-30T20:52:27.099Z,7.42
2023-03-30T20:54:54.404Z,7.31
2023-03-30T20:57:22.057Z,7.19
2023-03-30T20:59:50.189Z,7.04
2023-03-30T21:02:19.051Z,6.85
2023-03-30T21:04:46.454Z,6.60
2023-03-30T21:07:13.620Z,6.36
2023-03-30T21:09:40.833Z,6.15
2023-03-30T21:12:09.774Z,5.99
2023-03-30T21:14:36.987Z,5.88
2023-03-30T21:17:04.470Z,5.80
2023-03-30T21:19:31.816Z,5.71
2023-03-30T21:22:00.360Z,5.62
2023-03-30T21:24:28.034Z,5.53
2023-03-30T21:26:55.048Z,5.49
2023-03-30T21:29:22.759Z,5.48
2023-03-30T21:31:50.113Z,5.44
2023-03-30T21:34:18.907Z,5.41
2023-03-30T21:36:46.533Z,5.40
2023-03-30T21:39:14.144Z,5.39
2023-03-30T21:41:41.239Z,5.41
2023-03-30T21:44:08.533Z,5.44
2023-03-30T21:46:35.510Z,5.46
2023-03-30T21:49:02.792Z,5.46
2023-03-30T21:51:31.494Z,5.47
2023-03-30T21:53:59.477Z,5.50
2023-03-30T21:56:29.393Z,5.50
2023-03-30T21:58:57.736Z,5.52
2023-03-30T22:01:25.200Z,5.54
2023-03-30T22:03:53.716Z,5.49
2023-03-30T22:06:21.672Z,5.50
2023-03-30T22:08:49.147Z,5.49
2023-03-30T22:11:19.167Z,5.51
2023-03-30T22:13:48.516Z,5.51
2023-03-30T22:16:36.818Z,5.49
2023-03-30T22:19:04.560Z,5.50
2023-03-30T22:21:34.917Z,5.50
2023-03-30T22:24:04.159Z,5.53
2023-03-30T22:26:31.229Z,5.53
2023-03-30T22:28:58.437Z,5.55
2023-03-30T22:31:26.668Z,5.58
2023-03-30T22:33:54.612Z,5.58
2023-03-30T22:36:33.280Z,5.57
2023-03-30T22:39:01.903Z,5.54
2023-03-30T22:41:29.135Z,5.54
2023-03-30T22:43:58.041Z,5.53
2023-03-30T22:46:26.626Z,5.51
2023-03-30T22:48:55.770Z,5.49
2023-03-30T22:51:26.703Z,5.45
2023-03-30T22:54:00.733Z,5.41
2023-03-30T22:56:29.076Z,5.39
2023-03-30T22:58:57.134Z,5.39
2023-03-30T23:01:24.006Z,5.37
2023-03-30T23:03:53.100Z,5.39
2023-03-30T23:06:20.400Z,5.44
2023-03-30T23:08:48.931Z,5.44
2023-03-30T23:11:16.403Z,5.46
2023-03-30T23:13:43.757Z,5.48
2023-03-30T23:16:10.852Z,5.50
2023-03-30T23:18:38.689Z,5.50
2023-03-30T23:21:11.284Z,5.49
2023-03-30T23:23:38.698Z,5.48
2023-03-30T23:26:10.472Z,5.49
2023-03-30T23:28:42.135Z,5.49
2023-03-30T23:31:14.745Z,5.51
2023-03-30T23:33:42.776Z,5.52
2023-03-30T23:36:13.977Z,5.52
2023-03-30T23:38:41.795Z,5.52
2023-03-30T23:41:09.303Z,5.52
2023-03-30T23:43:36.543Z,5.52
2023-03-30T23:46:04.024Z,5.54
2023-03-30T23:48:32.012Z,5.55
2023-03-30T23:50:59.422Z,5.57
2023-03-30T23:53:27.018Z,5.58
2023-03-30T23:55:54.592Z,5.62
2023-03-30T23:58:22.521Z,5.60
